Time;durP1;ratioP1;P1;durP2;ratioP2;P2;SDS_P1;SDS_P2;PMS_P1;PMS_P2;Temp;Humidity;BMP_temperature;BMP_pressure;BME280_temperature;BME280_humidity;BME280_pressure;Samples;Min_cycle;Max_cycle;Signal;HPM_P1;HPM_P2
2023/11/24 00:00:25;;;;;;;;;;;15.70;86.20;;;;;;3967028;29;20112;-48
2023/11/24 00:03:06;;;;;;;;;;;15.60;85.40;;;;;;3967547;29;19952;-54
2023/11/24 00:05:46;;;;;;;;;;;15.60;85.40;;;;;;3982253;29;19935;-55
2023/11/24 00:08:28;;;;;;;;;;;15.50;85.50;;;;;;3982498;29;19984;-52
2023/11/24 00:11:09;;;;;;;;;;;15.50;85.60;;;;;;3982361;29;19935;-55
2023/11/24 00:13:50;;;;;;;;;;;15.50;85.60;;;;;;3978338;29;19955;-51
2023/11/24 00:16:31;;;;;;;;;;;15.50;86.80;;;;;;3985659;29;19936;-55
2023/11/24 00:19:15;;;;;;;;;;;15.40;85.90;;;;;;3984975;29;19939;-53
2023/11/24 00:21:56;;;;;;;;;;;15.40;85.90;;;;;;3985011;29;19939;-54
2023/11/24 00:24:37;;;;;;;;;;;15.40;86.00;;;;;;3981545;29;19940;-56
2023/11/24 00:27:19;;;;;;;;;;;15.30;86.00;;;;;;3985445;29;20392;-54
2023/11/24 00:30:07;;;;;;;;;;;15.30;86.00;;;;;;3973916;29;19944;-55
2023/11/24 00:32:48;;;;;;;;;;;15.30;86.10;;;;;;3980369;29;19940;-52
2023/11/24 00:35:31;;;;;;;;;;;15.20;86.20;;;;;;3969495;29;20075;-52
2023/11/24 00:38:11;;;;;;;;;;;15.20;86.40;;;;;;3958372;29;19979;-55
2023/11/24 00:40:52;;;;;;;;;;;15.10;86.30;;;;;;3970221;29;20392;-54
2023/11/24 00:43:36;;;;;;;;;;;15.10;86.30;;;;;;3974824;29;20296;-51
2023/11/24 00:46:18;;;;;;;;;;;15.10;86.50;;;;;;3973502;29;19940;-53
2023/11/24 00:48:59;;;;;;;;;;;15.10;86.60;;;;;;3983202;29;19977;-50
2023/11/24 00:51:39;;;;;;;;;;;15.00;87.40;;;;;;3977484;29;19940;-50
2023/11/24 00:54:20;;;;;;;;;;;15.00;86.60;;;;;;3978126;29;19945;-49
2023/11/24 00:57:01;;;;;;;;;;;15.00;86.70;;;;;;3969471;29;19981;-50
2023/11/24 00:59:41;;;;;;;;;;;14.90;86.50;;;;;;3969557;29;20306;-49
2023/11/24 01:02:23;;;;;;;;;;;14.90;86.70;;;;;;3980825;29;20639;-49
2023/11/24 01:05:04;;;;;;;;;;;14.90;86.70;;;;;;3984502;29;20445;-50
2023/11/24 01:07:46;;;;;;;;;;;14.90;86.70;;;;;;3982695;29;20388;-48
2023/11/24 01:10:27;;;;;;;;;;;14.80;87.00;;;;;;3984542;29;19945;-48
2023/11/24 01:13:08;;;;;;;;;;;14.80;87.10;;;;;;3972471;29;19985;-48
2023/11/24 01:15:49;;;;;;;;;;;14.80;87.10;;;;;;3972704;29;19940;-49
2023/11/24 01:18:33;;;;;;;;;;;14.80;87.20;;;;;;3983516;29;19936;-49
2023/11/24 01:21:17;;;;;;;;;;;14.80;87.30;;;;;;3969174;29;20069;-50
2023/11/24 01:24:02;;;;;;;;;;;14.70;87.40;;;;;;3979076;29;19935;-49
2023/11/24 01:26:42;;;;;;;;;;;14.80;87.60;;;;;;3982914;29;19940;-48
2023/11/24 01:29:23;;;;;;;;;;;14.70;87.60;;;;;;3981106;29;19978;-48
2023/11/24 01:32:04;;;;;;;;;;;14.70;87.70;;;;;;3957609;29;19949;-50
2023/11/24 01:34:46;;;;;;;;;;;14.70;87.80;;;;;;3968686;29;19936;-48
2023/11/24 01:37:27;;;;;;;;;;;14.70;87.80;;;;;;3968872;29;20087;-50
2023/11/24 01:40:09;;;;;;;;;;;14.60;87.80;;;;;;3965388;29;19936;-54
2023/11/24 01:42:50;;;;;;;;;;;14.60;87.80;;;;;;3983054;29;19936;-52
2023/11/24 01:45:31;;;;;;;;;;;14.60;87.80;;;;;;3984255;29;19971;-51
2023/11/24 01:48:12;;;;;;;;;;;14.60;87.80;;;;;;3983099;29;19936;-50
2023/11/24 01:50:55;;;;;;;;;;;14.60;88.00;;;;;;3957316;29;19936;-50
2023/11/24 01:53:36;;;;;;;;;;;14.50;88.00;;;;;;3964075;29;20000;-53
2023/11/24 01:56:16;;;;;;;;;;;14.50;88.90;;;;;;3982696;29;19939;-53
2023/11/24 01:58:58;;;;;;;;;;;14.50;88.10;;;;;;3971583;29;20020;-48
2023/11/24 02:01:39;;;;;;;;;;;14.50;88.30;;;;;;3982316;29;20301;-51
2023/11/24 02:04:22;;;;;;;;;;;14.50;89.30;;;;;;3978051;29;19954;-50
2023/11/24 02:07:05;;;;;;;;;;;14.40;88.30;;;;;;3968080;29;19936;-51
2023/11/24 02:09:45;;;;;;;;;;;14.40;88.40;;;;;;3975276;29;19952;-50
2023/11/24 02:12:27;;;;;;;;;;;14.40;89.30;;;;;;3971610;29;19995;-52
2023/11/24 02:15:08;;;;;;;;;;;14.40;88.50;;;;;;3956738;29;19940;-52
2023/11/24 02:17:52;;;;;;;;;;;14.40;88.70;;;;;;3968183;29;20381;-48
2023/11/24 02:20:33;;;;;;;;;;;14.30;88.60;;;;;;3956961;29;19937;-49
2023/11/24 02:23:16;;;;;;;;;;;14.40;88.80;;;;;;3959835;29;19940;-51
2023/11/24 02:25:57;;;;;;;;;;;14.30;88.80;;;;;;3981904;29;20028;-50
2023/11/24 02:28:38;;;;;;;;;;;14.40;88.90;;;;;;3983385;29;19936;-49
2023/11/24 02:31:19;;;;;;;;;;;14.30;88.80;;;;;;3968060;29;19937;-48
2023/11/24 02:34:01;;;;;;;;;;;14.40;89.00;;;;;;3967690;29;19936;-50
2023/11/24 02:36:43;;;;;;;;;;;14.30;88.90;;;;;;3967361;29;19936;-49
2023/11/24 02:39:25;;;;;;;;;;;14.40;89.00;;;;;;3968011;29;19936;-50
2023/11/24 02:42:06;;;;;;;;;;;14.40;89.60;;;;;;3957939;29;20078;-50
2023/11/24 02:44:47;;;;;;;;;;;14.50;88.30;;;;;;3981945;29;19992;-51
2023/11/24 02:47:28;;;;;;;;;;;14.60;87.90;;;;;;3982900;29;19973;-49
2023/11/24 02:50:09;;;;;;;;;;;14.60;87.50;;;;;;3970460;29;19936;-52
2023/11/24 02:52:50;;;;;;;;;;;14.70;87.20;;;;;;3982672;29;20070;-49
2023/11/24 02:55:32;;;;;;;;;;;14.70;87.00;;;;;;3982228;29;19940;-49
2023/11/24 02:58:13;;;;;;;;;;;14.70;86.90;;;;;;3974065;29;19937;-50
2023/11/24 03:00:54;;;;;;;;;;;14.70;86.00;;;;;;3967696;29;19940;-53
2023/11/24 03:03:37;;;;;;;;;;;14.70;85.40;;;;;;3967359;29;19940;-54
2023/11/24 03:06:18;;;;;;;;;;;14.60;85.60;;;;;;3982147;29;20328;-53
2023/11/24 03:09:01;;;;;;;;;;;14.60;86.10;;;;;;3967040;29;19940;-50
2023/11/24 03:11:43;;;;;;;;;;;14.60;86.60;;;;;;3955755;29;20069;-51
2023/11/24 03:14:24;;;;;;;;;;;14.70;86.70;;;;;;3981710;29;20009;-52
2023/11/24 03:17:05;;;;;;;;;;;14.70;86.40;;;;;;3982105;29;20428;-50
2023/11/24 03:19:46;;;;;;;;;;;14.70;86.20;;;;;;3966646;29;20034;-52
2023/11/24 03:22:27;;;;;;;;;;;14.70;86.00;;;;;;3968596;29;20297;-49
2023/11/24 03:25:08;;;;;;;;;;;14.70;86.00;;;;;;3981754;29;19997;-49
2023/11/24 03:27:51;;;;;;;;;;;14.80;85.90;;;;;;3976428;29;19956;-51
2023/11/24 03:30:33;;;;;;;;;;;14.70;86.60;;;;;;3967932;29;19936;-49
2023/11/24 03:33:14;;;;;;;;;;;14.70;85.60;;;;;;3974820;29;20289;-50
2023/11/24 03:35:55;;;;;;;;;;;14.70;85.50;;;;;;3981433;29;19944;-53
2023/11/24 03:38:36;;;;;;;;;;;14.70;86.30;;;;;;3971304;29;20074;-50
2023/11/24 03:41:16;;;;;;;;;;;14.60;85.60;;;;;;3967192;29;20002;-49
2023/11/24 03:43:59;;;;;;;;;;;14.60;85.80;;;;;;3979508;29;19935;-52
2023/11/24 03:46:40;;;;;;;;;;;14.60;85.90;;;;;;3982245;29;20269;-50
2023/11/24 03:49:21;;;;;;;;;;;14.50;86.10;;;;;;3965696;29;20396;-51
2023/11/24 03:52:01;;;;;;;;;;;14.50;86.30;;;;;;3955701;29;19962;-51
2023/11/24 03:54:43;;;;;;;;;;;14.50;86.30;;;;;;3966951;29;19952;-48
2023/11/24 03:57:24;;;;;;;;;;;14.50;86.40;;;;;;3967406;29;20395;-49
2023/11/24 04:00:10;;;;;;;;;;;14.50;86.60;;;;;;3982091;29;19939;-52
2023/11/24 04:02:54;;;;;;;;;;;14.40;86.60;;;;;;3981283;29;19939;-54
2023/11/24 04:05:35;;;;;;;;;;;14.40;86.80;;;;;;3980730;29;19936;-48
2023/11/24 04:08:15;;;;;;;;;;;14.40;86.90;;;;;;3976369;29;19936;-51
2023/11/24 04:10:56;;;;;;;;;;;14.40;87.00;;;;;;3980665;29;19939;-52
2023/11/24 04:13:38;;;;;;;;;;;14.40;87.10;;;;;;3981841;29;20698;-53
2023/11/24 04:16:20;;;;;;;;;;;14.40;87.30;;;;;;3981597;29;20078;-54
2023/11/24 04:19:01;;;;;;;;;;;14.30;87.30;;;;;;3970112;29;20297;-52
2023/11/24 04:21:43;;;;;;;;;;;14.30;87.60;;;;;;3973179;29;20082;-52
2023/11/24 04:24:23;;;;;;;;;;;14.30;87.80;;;;;;3976222;29;19940;-54
2023/11/24 04:27:05;;;;;;;;;;;14.20;87.90;;;;;;3980769;29;20716;-54
2023/11/24 04:29:46;;;;;;;;;;;14.20;88.10;;;;;;3981512;29;19936;-52
2023/11/24 04:32:27;;;;;;;;;;;14.20;88.30;;;;;;3981319;29;19940;-52
2023/11/24 04:35:09;;;;;;;;;;;14.20;89.30;;;;;;3967855;29;19935;-53
2023/11/24 04:37:50;;;;;;;;;;;14.20;88.60;;;;;;3955488;29;19936;-54
2023/11/24 04:40:31;;;;;;;;;;;14.10;88.60;;;;;;3967168;29;19936;-54
2023/11/24 04:43:12;;;;;;;;;;;14.10;89.50;;;;;;3978051;29;20089;-55
2023/11/24 04:45:53;;;;;;;;;;;14.10;88.80;;;;;;3981680;29;19936;-55
2023/11/24 04:48:37;;;;;;;;;;;14.10;88.80;;;;;;3981894;29;19935;-54
2023/11/24 04:51:18;;;;;;;;;;;14.10;88.90;;;;;;3981425;29;19982;-54
2023/11/24 04:54:01;;;;;;;;;;;14.10;88.90;;;;;;3976537;29;19936;-51
2023/11/24 04:56:42;;;;;;;;;;;14.10;88.90;;;;;;3966771;29;19936;-54
2023/11/24 04:59:26;;;;;;;;;;;14.10;88.70;;;;;;3966242;29;19936;-51
2023/11/24 05:02:07;;;;;;;;;;;14.10;88.50;;;;;;3973403;29;19980;-53
2023/11/24 05:04:50;;;;;;;;;;;14.20;89.30;;;;;;3958608;29;19937;-54
2023/11/24 05:07:31;;;;;;;;;;;14.40;88.40;;;;;;3968949;29;19946;-54
2023/11/24 05:10:12;;;;;;;;;;;14.50;87.90;;;;;;3975639;29;19936;-52
2023/11/24 05:12:53;;;;;;;;;;;14.70;87.50;;;;;;3984012;29;19939;-55
2023/11/24 05:15:34;;;;;;;;;;;15.00;86.00;;;;;;3983686;29;20654;-53
2023/11/24 05:18:14;;;;;;;;;;;15.20;85.20;;;;;;3983849;29;19999;-55
2023/11/24 05:20:57;;;;;;;;;;;15.30;84.30;;;;;;3983579;29;20065;-55
2023/11/24 05:23:38;;;;;;;;;;;15.40;84.10;;;;;;3984517;29;20093;-54
2023/11/24 05:26:18;;;;;;;;;;;15.50;83.70;;;;;;3983870;29;19939;-55
2023/11/24 05:28:59;;;;;;;;;;;15.70;83.20;;;;;;3983536;29;20433;-51
2023/11/24 05:31:39;;;;;;;;;;;15.80;82.50;;;;;;3974018;29;20072;-54
2023/11/24 05:34:20;;;;;;;;;;;15.90;82.30;;;;;;3984005;29;19940;-55
2023/11/24 05:37:05;;;;;;;;;;;16.10;81.70;;;;;;3984056;29;19935;-52
2023/11/24 05:39:47;;;;;;;;;;;16.20;80.50;;;;;;3983642;29;20480;-53
2023/11/24 05:42:27;;;;;;;;;;;16.30;79.90;;;;;;3983841;29;20077;-55
2023/11/24 05:45:08;;;;;;;;;;;16.40;80.20;;;;;;3983780;29;20957;-55
2023/11/24 05:47:49;;;;;;;;;;;16.40;79.40;;;;;;3983564;29;20296;-55
2023/11/24 05:50:29;;;;;;;;;;;16.30;79.40;;;;;;3983880;29;19940;-55
2023/11/24 05:53:11;;;;;;;;;;;16.30;79.40;;;;;;3967583;29;20009;-53
2023/11/24 05:55:53;;;;;;;;;;;16.20;79.70;;;;;;3967598;29;20400;-56
2023/11/24 05:58:34;;;;;;;;;;;16.10;80.10;;;;;;3968578;29;19940;-54
2023/11/24 06:01:15;;;;;;;;;;;16.00;79.50;;;;;;3979046;29;19939;-54
2023/11/24 06:03:56;;;;;;;;;;;15.90;80.40;;;;;;3983356;29;19935;-52
2023/11/24 06:06:37;;;;;;;;;;;15.80;80.30;;;;;;3970681;29;19935;-53
2023/11/24 06:09:19;;;;;;;;;;;15.70;80.50;;;;;;3983679;29;20065;-55
2023/11/24 06:12:00;;;;;;;;;;;15.50;81.40;;;;;;3982153;29;20008;-53
2023/11/24 06:14:42;;;;;;;;;;;15.50;81.00;;;;;;3983151;29;20388;-51
2023/11/24 06:17:22;;;;;;;;;;;15.40;81.50;;;;;;3983631;29;20313;-56
2023/11/24 06:20:05;;;;;;;;;;;15.40;82.10;;;;;;3963867;29;19936;-55
2023/11/24 06:22:45;;;;;;;;;;;15.30;82.50;;;;;;3972492;29;20077;-53
2023/11/24 06:25:28;;;;;;;;;;;15.30;83.30;;;;;;3983549;29;19936;-51
2023/11/24 06:28:09;;;;;;;;;;;15.40;83.50;;;;;;3983086;29;19940;-54
2023/11/24 06:30:49;;;;;;;;;;;15.50;83.30;;;;;;3982323;29;19940;-53
2023/11/24 06:33:30;;;;;;;;;;;15.50;83.00;;;;;;3976281;29;19951;-52
2023/11/24 06:36:11;;;;;;;;;;;15.60;82.60;;;;;;3967869;29;19949;-55
2023/11/24 06:38:52;;;;;;;;;;;15.60;82.40;;;;;;3975827;29;19940;-55
2023/11/24 06:41:34;;;;;;;;;;;15.60;82.10;;;;;;3968084;29;19937;-52
2023/11/24 06:44:15;;;;;;;;;;;15.50;81.90;;;;;;3968099;29;20392;-52
2023/11/24 06:46:57;;;;;;;;;;;15.50;81.90;;;;;;3968080;29;19940;-53
2023/11/24 06:49:38;;;;;;;;;;;15.50;81.80;;;;;;3969291;29;19940;-50
2023/11/24 06:52:18;;;;;;;;;;;15.40;82.40;;;;;;3968056;29;19936;-54
2023/11/24 06:55:00;;;;;;;;;;;15.30;81.80;;;;;;3966633;29;19985;-55
2023/11/24 06:57:42;;;;;;;;;;;15.30;82.00;;;;;;3966938;29;19956;-53
2023/11/24 07:00:23;;;;;;;;;;;15.30;82.50;;;;;;3978682;29;20075;-50
2023/11/24 07:03:04;;;;;;;;;;;15.20;82.50;;;;;;3982561;29;19981;-51
2023/11/24 07:05:46;;;;;;;;;;;15.20;82.20;;;;;;3982236;29;19940;-51
2023/11/24 07:08:27;;;;;;;;;;;15.20;81.90;;;;;;3981807;29;19936;-52
2023/11/24 07:11:08;;;;;;;;;;;15.20;80.90;;;;;;3982430;29;20013;-50
2023/11/24 07:13:51;;;;;;;;;;;15.20;80.70;;;;;;3982228;29;20032;-52
2023/11/24 07:16:32;;;;;;;;;;;15.20;81.10;;;;;;3970259;29;20297;-52
2023/11/24 07:19:13;;;;;;;;;;;15.10;81.50;;;;;;3969881;29;20389;-50
2023/11/24 07:21:53;;;;;;;;;;;15.10;81.80;;;;;;3967631;29;19940;-48
2023/11/24 07:24:34;;;;;;;;;;;15.10;80.40;;;;;;3955803;29;20282;-47
2023/11/24 07:27:15;;;;;;;;;;;15.10;81.40;;;;;;3970222;29;20400;-48
2023/11/24 07:29:57;;;;;;;;;;;15.00;81.50;;;;;;3975861;29;20392;-48
2023/11/24 07:32:38;;;;;;;;;;;15.00;81.80;;;;;;3981825;29;19957;-52
2023/11/24 07:35:20;;;;;;;;;;;15.00;82.40;;;;;;3981429;29;19942;-47
2023/11/24 07:38:00;;;;;;;;;;;15.00;82.60;;;;;;3980757;29;19936;-50
2023/11/24 07:40:41;;;;;;;;;;;14.90;82.90;;;;;;3982453;29;20097;-48
2023/11/24 07:43:22;;;;;;;;;;;14.90;83.00;;;;;;3982042;29;20475;-48
2023/11/24 07:46:07;;;;;;;;;;;14.80;83.40;;;;;;3965899;29;19936;-51
2023/11/24 07:48:52;;;;;;;;;;;14.80;83.30;;;;;;3981417;29;19936;-52
2023/11/24 07:51:33;;;;;;;;;;;14.80;83.30;;;;;;3981795;29;19939;-51
2023/11/24 07:54:13;;;;;;;;;;;14.70;83.40;;;;;;3980881;29;19935;-52
2023/11/24 07:56:54;;;;;;;;;;;14.70;84.50;;;;;;3971574;29;19940;-51
2023/11/24 07:59:35;;;;;;;;;;;14.60;83.70;;;;;;3967076;29;20472;-51
2023/11/24 08:02:17;;;;;;;;;;;14.60;83.80;;;;;;3974010;29;20353;-54
2023/11/24 08:04:57;;;;;;;;;;;14.60;83.80;;;;;;3982303;29;19935;-54
2023/11/24 08:07:38;;;;;;;;;;;14.50;83.40;;;;;;3982282;29;19955;-54
2023/11/24 08:10:18;;;;;;;;;;;14.50;83.00;;;;;;3967253;29;20022;-55
2023/11/24 08:12:59;;;;;;;;;;;14.50;82.70;;;;;;3966015;29;19956;-54
2023/11/24 08:15:40;;;;;;;;;;;14.40;83.10;;;;;;3972405;29;19985;-53
2023/11/24 08:18:22;;;;;;;;;;;14.40;83.80;;;;;;3971038;29;19936;-54
2023/11/24 08:21:03;;;;;;;;;;;14.40;84.00;;;;;;3966405;29;19940;-54
2023/11/24 08:23:43;;;;;;;;;;;14.40;85.10;;;;;;3967069;29;20030;-55
2023/11/24 08:26:24;;;;;;;;;;;14.30;84.00;;;;;;3978176;29;19985;-55
2023/11/24 08:29:05;;;;;;;;;;;14.30;83.50;;;;;;3981997;29;19940;-54
2023/11/24 08:31:48;;;;;;;;;;;14.20;83.50;;;;;;3982535;29;19945;-55
2023/11/24 08:34:30;;;;;;;;;;;14.20;83.60;;;;;;3982243;29;19936;-55
2023/11/24 08:37:11;;;;;;;;;;;14.20;83.50;;;;;;3958656;29;19945;-53
2023/11/24 08:39:52;;;;;;;;;;;14.20;83.60;;;;;;3969770;29;20421;-52
2023/11/24 08:42:33;;;;;;;;;;;14.10;83.30;;;;;;3969772;29;19940;-54
2023/11/24 08:45:16;;;;;;;;;;;14.10;83.30;;;;;;3972324;29;20417;-54
2023/11/24 08:47:57;;;;;;;;;;;14.00;82.70;;;;;;3984963;29;20577;-55
2023/11/24 08:50:40;;;;;;;;;;;14.00;82.70;;;;;;3984656;29;19935;-51
2023/11/24 08:53:20;;;;;;;;;;;14.00;83.40;;;;;;3984545;29;19948;-53
2023/11/24 08:56:01;;;;;;;;;;;14.00;84.70;;;;;;3977266;29;19971;-53
2023/11/24 08:58:42;;;;;;;;;;;14.00;84.30;;;;;;3984115;29;19939;-53
2023/11/24 09:01:22;;;;;;;;;;;14.00;84.80;;;;;;3984464;29;19936;-54
2023/11/24 09:04:04;;;;;;;;;;;14.20;84.60;;;;;;3983975;29;19936;-54
2023/11/24 09:06:46;;;;;;;;;;;14.50;83.50;;;;;;3983690;29;20409;-54
2023/11/24 09:09:28;;;;;;;;;;;14.70;82.40;;;;;;3983648;29;19936;-54
2023/11/24 09:12:09;;;;;;;;;;;14.90;80.90;;;;;;3984256;29;20000;-53
2023/11/24 09:14:50;;;;;;;;;;;15.10;80.10;;;;;;3983605;29;20294;-53
2023/11/24 09:17:31;;;;;;;;;;;15.20;78.20;;;;;;3984051;29;19935;-51
2023/11/24 09:20:16;;;;;;;;;;;15.40;78.80;;;;;;3983873;29;20471;-51
2023/11/24 09:22:58;;;;;;;;;;;15.60;78.40;;;;;;3983754;29;20297;-54
2023/11/24 09:25:40;;;;;;;;;;;15.90;77.70;;;;;;3984527;29;19936;-52
2023/11/24 09:28:21;;;;;;;;;;;16.10;76.50;;;;;;3984124;29;19984;-54
2023/11/24 09:31:08;;;;;;;;;;;16.40;75.50;;;;;;3983893;29;19939;-53
2023/11/24 09:33:51;;;;;;;;;;;16.60;73.70;;;;;;3983742;29;19988;-54
2023/11/24 09:36:31;;;;;;;;;;;16.80;73.60;;;;;;3983799;29;19952;-54
2023/11/24 09:39:17;;;;;;;;;;;16.90;73.30;;;;;;3983845;29;20416;-54
2023/11/24 09:41:57;;;;;;;;;;;16.90;73.20;;;;;;3984129;29;20002;-53
2023/11/24 09:44:40;;;;;;;;;;;17.00;72.60;;;;;;3983616;29;19936;-53
2023/11/24 09:47:21;;;;;;;;;;;16.90;70.30;;;;;;3982690;29;20376;-54
2023/11/24 09:50:03;;;;;;;;;;;16.80;70.30;;;;;;3983769;29;19936;-54
2023/11/24 09:52:46;;;;;;;;;;;16.80;70.10;;;;;;3983969;29;19980;-55
2023/11/24 09:55:28;;;;;;;;;;;16.60;72.30;;;;;;3968417;29;20305;-54
2023/11/24 09:58:10;;;;;;;;;;;16.50;71.90;;;;;;3968273;29;20792;-53
2023/11/24 10:00:51;;;;;;;;;;;16.40;72.90;;;;;;3968543;29;19936;-55
2023/11/24 10:03:37;;;;;;;;;;;16.40;70.70;;;;;;3972148;29;19984;-53
2023/11/24 10:06:18;;;;;;;;;;;16.50;70.20;;;;;;3983084;29;20043;-54
2023/11/24 10:08:59;;;;;;;;;;;16.50;71.50;;;;;;3983305;29;19951;-55
2023/11/24 10:11:41;;;;;;;;;;;16.50;71.60;;;;;;3983169;29;19939;-55
2023/11/24 10:14:22;;;;;;;;;;;16.40;71.30;;;;;;3983253;29;20293;-52
2023/11/24 10:17:03;;;;;;;;;;;16.40;71.80;;;;;;3982503;29;19936;-52
2023/11/24 10:19:44;;;;;;;;;;;16.40;72.40;;;;;;3983304;29;19958;-52
2023/11/24 10:22:27;;;;;;;;;;;16.40;71.10;;;;;;3983251;29;19954;-52
2023/11/24 10:25:10;;;;;;;;;;;16.50;69.10;;;;;;3983372;29;19936;-54
2023/11/24 10:27:58;;;;;;;;;;;16.50;67.80;;;;;;3983719;29;19946;-53
2023/11/24 10:30:39;;;;;;;;;;;16.50;68.50;;;;;;3983113;29;19978;-56
2023/11/24 10:33:21;;;;;;;;;;;16.40;69.20;;;;;;3983233;29;19936;-56
2023/11/24 10:36:16;;;;;;;;;;;16.40;69.80;;;;;;3982735;29;19940;-55
2023/11/24 10:39:00;;;;;;;;;;;16.30;70.80;;;;;;3983447;29;20020;-56
2023/11/24 10:41:42;;;;;;;;;;;16.20;69.40;;;;;;3983188;29;19936;-55
2023/11/24 10:44:25;;;;;;;;;;;16.10;69.30;;;;;;3983339;29;19988;-55
2023/11/24 10:47:08;;;;;;;;;;;16.00;70.80;;;;;;3983111;29;20476;-56
2023/11/24 10:49:55;;;;;;;;;;;15.90;71.60;;;;;;3982887;29;19936;-55
2023/11/24 10:52:41;;;;;;;;;;;15.80;72.40;;;;;;3982877;29;19940;-55
2023/11/24 10:55:22;;;;;;;;;;;15.70;72.60;;;;;;3982845;29;20021;-56
2023/11/24 10:58:03;;;;;;;;;;;15.60;73.30;;;;;;3982551;29;19952;-54
2023/11/24 11:00:45;;;;;;;;;;;15.50;73.70;;;;;;3983214;29;20017;-55
2023/11/24 11:03:27;;;;;;;;;;;15.40;73.40;;;;;;3982569;29;20065;-55
2023/11/24 11:06:10;;;;;;;;;;;15.40;74.40;;;;;;3982780;29;19936;-55
2023/11/24 11:08:57;;;;;;;;;;;15.30;74.10;;;;;;3982715;29;19935;-55
2023/11/24 11:11:56;;;;;;;;;;;15.20;74.80;;;;;;3982465;29;20065;-52
2023/11/24 11:14:37;;;;;;;;;;;15.10;75.10;;;;;;3970177;29;19936;-52
2023/11/24 11:17:20;;;;;;;;;;;15.00;75.40;;;;;;3982591;29;20342;-55
2023/11/24 11:20:02;;;;;;;;;;;15.00;76.00;;;;;;3982133;29;20001;-53
2023/11/24 11:22:47;;;;;;;;;;;14.90;76.50;;;;;;3981356;29;19935;-53
2023/11/24 11:25:38;;;;;;;;;;;14.90;76.90;;;;;;3982151;29;20050;-54
2023/11/24 11:28:45;;;;;;;;;;;14.80;77.30;;;;;;3982932;29;21187;-52
2023/11/24 11:31:33;;;;;;;;;;;14.80;77.80;;;;;;3981493;29;19940;-54
2023/11/24 11:34:17;;;;;;;;;;;14.70;78.20;;;;;;3981874;29;19940;-51
2023/11/24 11:37:11;;;;;;;;;;;14.70;78.60;;;;;;3972638;29;19939;-52
2023/11/24 11:39:57;;;;;;;;;;;14.70;79.00;;;;;;3981911;29;19981;-56
2023/11/24 11:42:51;;;;;;;;;;;14.60;79.30;;;;;;3982814;29;19980;-54
2023/11/24 11:45:33;;;;;;;;;;;14.60;78.80;;;;;;3981268;29;19940;-52
2023/11/24 11:48:14;;;;;;;;;;;14.60;78.20;;;;;;3967124;29;20077;-54
2023/11/24 11:50:57;;;;;;;;;;;14.50;76.70;;;;;;3967413;29;19994;-52
2023/11/24 11:53:38;;;;;;;;;;;14.50;78.40;;;;;;3967439;29;19952;-52
2023/11/24 11:56:23;;;;;;;;;;;14.50;78.20;;;;;;3971738;29;20010;-52
2023/11/24 11:59:05;;;;;;;;;;;14.40;76.90;;;;;;3981419;29;20441;-53
2023/11/24 12:01:46;;;;;;;;;;;14.40;76.50;;;;;;3982475;29;19989;-55
2023/11/24 12:04:29;;;;;;;;;;;14.40;75.90;;;;;;3982532;29;19940;-56
2023/11/24 12:07:12;;;;;;;;;;;14.30;75.60;;;;;;3981960;29;20053;-54
2023/11/24 12:09:53;;;;;;;;;;;14.30;77.00;;;;;;3983415;29;19936;-52
2023/11/24 12:12:34;;;;;;;;;;;14.20;77.50;;;;;;3987014;29;19988;-52
2023/11/24 12:15:17;;;;;;;;;;;14.20;78.40;;;;;;3986754;29;19984;-48
2023/11/24 12:17:58;;;;;;;;;;;14.20;78.60;;;;;;3971229;29;19936;-56
2023/11/24 12:20:39;;;;;;;;;;;14.20;79.20;;;;;;3971964;29;19936;-55
2023/11/24 12:23:22;;;;;;;;;;;14.30;79.50;;;;;;3971521;29;19940;-54
2023/11/24 12:26:02;;;;;;;;;;;14.40;79.20;;;;;;3978081;29;19936;-54
2023/11/24 12:28:43;;;;;;;;;;;14.60;78.40;;;;;;3986760;29;19981;-56
2023/11/24 12:31:27;;;;;;;;;;;14.80;77.60;;;;;;3986467;29;19940;-55
2023/11/24 12:34:20;;;;;;;;;;;15.00;76.60;;;;;;3986915;29;20392;-54
2023/11/24 12:37:00;;;;;;;;;;;15.10;76.00;;;;;;3986004;29;20017;-56
2023/11/24 12:39:43;;;;;;;;;;;15.10;75.80;;;;;;3981544;29;20289;-56
2023/11/24 12:42:24;;;;;;;;;;;15.20;75.50;;;;;;3972852;29;19940;-54
2023/11/24 12:45:07;;;;;;;;;;;15.10;74.80;;;;;;3981324;29;19936;-52
2023/11/24 12:47:48;;;;;;;;;;;15.10;75.80;;;;;;3986990;29;19936;-52
2023/11/24 12:50:29;;;;;;;;;;;15.10;76.20;;;;;;3986596;29;20403;-55
2023/11/24 12:53:10;;;;;;;;;;;15.10;76.50;;;;;;3971227;29;19956;-55
2023/11/24 12:55:52;;;;;;;;;;;15.10;76.10;;;;;;3971211;29;20078;-55
2023/11/24 12:58:34;;;;;;;;;;;15.00;76.10;;;;;;3985325;29;20305;-54
2023/11/24 13:01:15;;;;;;;;;;;14.90;75.20;;;;;;3985939;29;19981;-57
2023/11/24 13:03:57;;;;;;;;;;;14.90;76.10;;;;;;3970816;29;20301;-55
2023/11/24 13:06:38;;;;;;;;;;;14.80;76.40;;;;;;3971126;29;19936;-54
2023/11/24 13:09:18;;;;;;;;;;;14.80;76.90;;;;;;3974882;29;19940;-56
2023/11/24 13:12:00;;;;;;;;;;;14.80;77.40;;;;;;3982547;29;19936;-57
2023/11/24 13:14:47;;;;;;;;;;;15.00;77.30;;;;;;3970546;29;19936;-56
2023/11/24 13:17:27;;;;;;;;;;;15.30;76.90;;;;;;3977720;29;19936;-55
2023/11/24 13:20:10;;;;;;;;;;;15.60;73.00;;;;;;3980618;29;20073;-50
2023/11/24 13:22:51;;;;;;;;;;;15.90;72.50;;;;;;3977049;29;19990;-49
2023/11/24 13:25:33;;;;;;;;;;;16.00;73.50;;;;;;3983415;29;19985;-51
2023/11/24 13:28:17;;;;;;;;;;;16.20;72.30;;;;;;3968732;29;19940;-49
2023/11/24 13:30:58;;;;;;;;;;;16.30;71.60;;;;;;3979875;29;19936;-52
2023/11/24 13:33:39;;;;;;;;;;;16.30;72.70;;;;;;3983347;29;20285;-53
2023/11/24 13:36:21;;;;;;;;;;;16.40;71.80;;;;;;3982378;29;19936;-49
2023/11/24 13:39:03;;;;;;;;;;;16.40;71.70;;;;;;3983218;29;19939;-50
2023/11/24 13:41:44;;;;;;;;;;;16.50;71.40;;;;;;3979293;29;19939;-52
2023/11/24 13:44:26;;;;;;;;;;;16.70;70.70;;;;;;3972385;29;20046;-50
2023/11/24 13:47:07;;;;;;;;;;;16.80;69.60;;;;;;3983696;29;20025;-51
2023/11/24 13:49:49;;;;;;;;;;;16.90;67.10;;;;;;3968579;29;20401;-50
2023/11/24 13:52:31;;;;;;;;;;;16.90;63.60;;;;;;3968283;29;19940;-55
2023/11/24 13:55:13;;;;;;;;;;;16.90;62.80;;;;;;3968706;29;19940;-58
2023/11/24 13:57:54;;;;;;;;;;;16.70;63.10;;;;;;3967810;29;20480;-58
2023/11/24 14:00:37;;;;;;;;;;;16.60;63.80;;;;;;3969717;29;19985;-58
2023/11/24 14:03:17;;;;;;;;;;;16.50;65.00;;;;;;3968509;29;20072;-59
2023/11/24 14:05:59;;;;;;;;;;;16.40;65.30;;;;;;3969690;29;19981;-56
2023/11/24 14:08:39;;;;;;;;;;;16.20;66.00;;;;;;3976853;29;20396;-58
2023/11/24 14:11:20;;;;;;;;;;;16.10;67.10;;;;;;3983383;29;19939;-57
2023/11/24 14:14:01;;;;;;;;;;;16.00;67.30;;;;;;3983036;29;19939;-58
2023/11/24 14:16:44;;;;;;;;;;;16.00;68.40;;;;;;3978550;29;19939;-54
2023/11/24 14:19:24;;;;;;;;;;;15.90;67.70;;;;;;3971202;29;20073;-59
2023/11/24 14:22:05;;;;;;;;;;;15.90;69.70;;;;;;3980857;29;19968;-59
2023/11/24 14:24:46;;;;;;;;;;;15.90;70.80;;;;;;3967551;29;19937;-58
2023/11/24 14:27:26;;;;;;;;;;;15.90;71.90;;;;;;3967609;29;19940;-59
2023/11/24 14:30:07;;;;;;;;;;;15.80;72.40;;;;;;3956502;29;20010;-58
2023/11/24 14:32:51;;;;;;;;;;;15.70;71.70;;;;;;3972874;29;20020;-58
2023/11/24 14:35:32;;;;;;;;;;;15.70;71.20;;;;;;3981212;29;19963;-58
2023/11/24 14:38:13;;;;;;;;;;;15.60;70.40;;;;;;3966064;29;19985;-58
2023/11/24 14:40:54;;;;;;;;;;;15.50;68.90;;;;;;3974705;29;20383;-58
2023/11/24 14:43:35;;;;;;;;;;;15.40;70.70;;;;;;3997348;29;19939;-58
2023/11/24 14:46:19;;;;;;;;;;;15.30;71.60;;;;;;3997626;29;19943;-58
2023/11/24 14:49:03;;;;;;;;;;;15.20;71.30;;;;;;3968012;29;19940;-58
2023/11/24 14:51:47;;;;;;;;;;;15.10;72.20;;;;;;3980066;29;20293;-58
2023/11/24 14:54:30;;;;;;;;;;;15.00;72.80;;;;;;3982546;29;20700;-59
2023/11/24 14:57:12;;;;;;;;;;;15.00;73.50;;;;;;3976302;29;19936;-59
2023/11/24 14:59:55;;;;;;;;;;;14.90;74.10;;;;;;3981990;29;19945;-54
2023/11/24 15:02:38;;;;;;;;;;;14.90;74.60;;;;;;3982196;29;20021;-59
2023/11/24 15:05:20;;;;;;;;;;;14.80;75.10;;;;;;3981831;29;19966;-62
2023/11/24 15:08:06;;;;;;;;;;;14.80;75.90;;;;;;3966920;29;19937;-62
2023/11/24 15:10:47;;;;;;;;;;;14.70;76.40;;;;;;3971293;29;20050;-58
2023/11/24 15:13:28;;;;;;;;;;;14.70;76.50;;;;;;3966701;29;19936;-58
2023/11/24 15:16:12;;;;;;;;;;;14.70;75.80;;;;;;3969574;29;20448;-58
2023/11/24 15:18:54;;;;;;;;;;;14.60;75.70;;;;;;3982865;29;19939;-57
2023/11/24 15:21:38;;;;;;;;;;;14.60;75.20;;;;;;3982416;29;19936;-57
2023/11/24 15:24:20;;;;;;;;;;;14.50;74.60;;;;;;3982770;29;19936;-56
2023/11/24 15:27:01;;;;;;;;;;;14.50;72.80;;;;;;3982449;29;19940;-57
2023/11/24 15:29:42;;;;;;;;;;;14.40;73.70;;;;;;3979711;29;20392;-56
2023/11/24 15:32:23;;;;;;;;;;;14.30;71.70;;;;;;3982749;29;19980;-58
2023/11/24 15:35:05;;;;;;;;;;;14.20;70.00;;;;;;3982081;29;19940;-57
2023/11/24 15:37:47;;;;;;;;;;;14.10;69.50;;;;;;3982984;29;20330;-53
2023/11/24 15:40:27;;;;;;;;;;;14.10;72.20;;;;;;3982232;29;19955;-58